Morioka, Japan
Current Conditions -  °F | °C
As of 9:00 PM on Sunday 25 Jan 2015 (Local Time) from RJSK Reporting Station
Broken Clouds Broken Clouds  
Wind Chill: 32°   Ceiling: 19000
Heat Index: 32°   Visibility: 6mi
Dew Point: 21°   Wind: 3mph
Humidity: 64%   Direction: 130°SE
Pressure: 30.36"   Gusts: NA
Location:  39.7°N, 141.15°E
Report Text: RJSK 251200Z 13003KT 9999 FEW040 BKN190 BKN/// M00/M06 Q1028
Loading
Personal Weather Stations






























Interactive Weather Map New forecast layout! Learn more

10-Day Weather Forecast

Advertisements
Track Severe Weather on mobile